Time;durP1;ratioP1;P1;durP2;ratioP2;P2;SDS_P1;SDS_P2;PMS_P1;PMS_P2;Temp;Humidity;BMP_temperature;BMP_pressure;BME280_temperature;BME280_humidity;BME280_pressure;Samples;Min_cycle;Max_cycle;Signal;HPM_P1;HPM_P2
2021/12/28 00:00:33;;;;;;;35.00;23.60;;;;;;;;;;5018375;28;20256;-86
2021/12/28 00:02:59;;;;;;;34.33;23.37;;;;;;;;;;5005257;28;20230;-87
2021/12/28 00:05:26;;;;;;;34.00;23.57;;;;;;;;;;5015684;28;20922;-87
2021/12/28 00:07:52;;;;;;;34.50;23.87;;;;;;;;;;5008333;28;20672;-87
2021/12/28 00:10:19;;;;;;;34.53;24.13;;;;;;;;;;5016338;28;20183;-86
2021/12/28 00:12:46;;;;;;;38.93;24.77;;;;;;;;;;5012583;28;20217;-86
2021/12/28 00:18:02;;;;;;;35.87;24.90;;;;;;;;;;5017579;28;20280;-86
2021/12/28 00:20:44;;;;;;;35.50;23.93;;;;;;;;;;5013542;28;20222;-86
2021/12/28 00:23:22;;;;;;;35.13;24.70;;;;;;;;;;5010589;28;20640;-86
2021/12/28 00:25:50;;;;;;;41.50;25.80;;;;;;;;;;5013059;28;20214;-86
2021/12/28 00:28:15;;;;;;;35.83;24.83;;;;;;;;;;5011519;28;20187;-86
2021/12/28 00:30:42;;;;;;;36.30;23.93;;;;;;;;;;5009948;28;20195;-86
2021/12/28 00:33:08;;;;;;;39.13;24.33;;;;;;;;;;5016032;28;20174;-86
2021/12/28 00:35:36;;;;;;;42.33;25.33;;;;;;;;;;5009847;28;20193;-86
2021/12/28 00:38:03;;;;;;;38.57;25.33;;;;;;;;;;5013741;28;20237;-86
2021/12/28 00:40:29;;;;;;;44.20;26.33;;;;;;;;;;5010755;28;20240;-87
2021/12/28 00:42:55;;;;;;;41.25;25.95;;;;;;;;;;5013335;28;20684;-87
2021/12/28 00:45:21;;;;;;;39.40;25.80;;;;;;;;;;5011670;28;20214;-86
2021/12/28 00:47:46;;;;;;;40.97;24.90;;;;;;;;;;5011564;28;20183;-87
2021/12/28 00:50:17;;;;;;;38.03;25.03;;;;;;;;;;5009765;28;20594;-87
2021/12/28 00:52:43;;;;;;;38.00;24.20;;;;;;;;;;5017347;28;20270;-86
2021/12/28 00:55:10;;;;;;;40.50;26.20;;;;;;;;;;5010527;28;20202;-87
2021/12/28 00:57:36;;;;;;;40.77;25.67;;;;;;;;;;5015689;28;20229;-86
2021/12/28 01:00:04;;;;;;;42.40;26.30;;;;;;;;;;5001951;28;20195;-86
2021/12/28 01:02:33;;;;;;;42.53;26.17;;;;;;;;;;5027037;28;20221;-86
2021/12/28 01:04:58;;;;;;;40.43;27.10;;;;;;;;;;5013939;28;20187;-87
2021/12/28 01:07:26;;;;;;;42.33;25.67;;;;;;;;;;5013561;28;20225;-87
2021/12/28 01:09:52;;;;;;;48.03;28.50;;;;;;;;;;5011491;28;20199;-86
2021/12/28 01:12:17;;;;;;;45.40;27.40;;;;;;;;;;5009347;28;20194;-87
2021/12/28 01:14:43;;;;;;;50.07;27.87;;;;;;;;;;5008050;28;20207;-86
2021/12/28 01:17:08;;;;;;;49.50;27.30;;;;;;;;;;5006795;28;20658;-86
2021/12/28 01:19:34;;;;;;;45.93;27.73;;;;;;;;;;5012826;28;20225;-86
2021/12/28 01:22:01;;;;;;;49.60;28.52;;;;;;;;;;5008033;28;20597;-87
2021/12/28 01:24:27;;;;;;;46.67;28.03;;;;;;;;;;5009940;28;20187;-87
2021/12/28 01:26:53;;;;;;;47.23;28.33;;;;;;;;;;5007794;28;20246;-87
2021/12/28 01:29:18;;;;;;;51.37;28.37;;;;;;;;;;5009894;28;20269;-86
2021/12/28 01:31:44;;;;;;;48.83;27.65;;;;;;;;;;5013759;28;20662;-86
2021/12/28 01:34:11;;;;;;;49.63;27.77;;;;;;;;;;5011286;28;20198;-86
2021/12/28 01:36:37;;;;;;;46.23;27.20;;;;;;;;;;5005087;28;20190;-86
2021/12/28 01:39:07;;;;;;;45.90;27.05;;;;;;;;;;5007351;28;20190;-86
2021/12/28 01:41:34;;;;;;;49.17;27.60;;;;;;;;;;5004476;28;20667;-87
2021/12/28 01:44:07;;;;;;;50.63;28.40;;;;;;;;;;5008636;28;20186;-86
2021/12/28 01:46:35;;;;;;;46.93;27.03;;;;;;;;;;5002145;28;20675;-87
2021/12/28 01:49:08;;;;;;;50.30;26.20;;;;;;;;;;5010120;28;20214;-85
2021/12/28 01:51:37;;;;;;;57.33;27.93;;;;;;;;;;5007401;28;20186;-85
2021/12/28 01:54:06;;;;;;;44.77;25.63;;;;;;;;;;5009560;28;20688;-86
2021/12/28 01:56:42;;;;;;;50.43;27.30;;;;;;;;;;5000394;28;20685;-86
2021/12/28 01:59:14;;;;;;;44.20;25.07;;;;;;;;;;5007624;28;20214;-87
2021/12/28 02:01:40;;;;;;;51.43;25.87;;;;;;;;;;5007818;28;20191;-87
2021/12/28 02:04:20;;;;;;;49.10;26.87;;;;;;;;;;5009546;28;20620;-88
2021/12/28 02:06:46;;;;;;;57.83;27.67;;;;;;;;;;5011839;28;20202;-86
2021/12/28 02:09:13;;;;;;;55.47;26.60;;;;;;;;;;5008245;28;20190;-86
2021/12/28 02:11:38;;;;;;;56.27;27.10;;;;;;;;;;5006919;28;20245;-86
2021/12/28 02:14:07;;;;;;;65.47;28.50;;;;;;;;;;5002157;28;20207;-86
2021/12/28 02:16:38;;;;;;;61.07;27.77;;;;;;;;;;5007617;28;20193;-86
2021/12/28 02:19:09;;;;;;;63.50;28.73;;;;;;;;;;5022201;28;20225;-86
2021/12/28 02:21:35;;;;;;;56.00;28.37;;;;;;;;;;5011780;28;20601;-86
2021/12/28 02:24:03;;;;;;;59.73;29.10;;;;;;;;;;5011589;28;20274;-85
2021/12/28 02:26:29;;;;;;;68.27;29.17;;;;;;;;;;5007568;28;20214;-85
2021/12/28 02:28:55;;;;;;;71.93;29.20;;;;;;;;;;5011129;28;20182;-86
2021/12/28 02:31:21;;;;;;;66.80;29.70;;;;;;;;;;5012731;28;20214;-86
2021/12/28 02:33:48;;;;;;;69.33;29.43;;;;;;;;;;5011810;28;20210;-85
2021/12/28 02:36:14;;;;;;;64.70;29.60;;;;;;;;;;5009110;28;20187;-85
2021/12/28 02:38:40;;;;;;;66.97;29.40;;;;;;;;;;5004917;28;20503;-85
2021/12/28 02:41:07;;;;;;;68.37;30.23;;;;;;;;;;5009443;28;20190;-88
2021/12/28 02:43:33;;;;;;;69.77;28.03;;;;;;;;;;5011842;28;20296;-85
2021/12/28 02:46:05;;;;;;;71.03;27.47;;;;;;;;;;5011695;28;20673;-85
2021/12/28 02:48:32;;;;;;;71.37;28.13;;;;;;;;;;5008884;28;20194;-86
2021/12/28 02:51:09;;;;;;;71.17;27.03;;;;;;;;;;5011565;28;20248;-86
2021/12/28 02:53:35;;;;;;;61.17;26.97;;;;;;;;;;5003258;28;21075;-86
2021/12/28 02:56:05;;;;;;;59.80;26.50;;;;;;;;;;5007705;28;20178;-86
2021/12/28 02:58:40;;;;;;;61.23;26.47;;;;;;;;;;5008522;28;20598;-86
2021/12/28 03:01:16;;;;;;;65.97;26.77;;;;;;;;;;5011694;28;20204;-87
2021/12/28 03:03:46;;;;;;;63.33;26.10;;;;;;;;;;5011158;28;20222;-86
2021/12/28 03:06:15;;;;;;;59.47;26.30;;;;;;;;;;5031913;28;20210;-86
2021/12/28 03:08:44;;;;;;;57.27;25.90;;;;;;;;;;5014519;28;20194;-86
2021/12/28 03:11:10;;;;;;;62.83;24.87;;;;;;;;;;5014107;28;20187;-86
2021/12/28 03:13:45;;;;;;;64.47;25.17;;;;;;;;;;5006916;28;20190;-86
2021/12/28 03:16:11;;;;;;;66.83;24.50;;;;;;;;;;5014748;28;20187;-85
2021/12/28 03:18:37;;;;;;;63.40;25.13;;;;;;;;;;5013587;28;20179;-85
2021/12/28 03:21:13;;;;;;;63.53;23.97;;;;;;;;;;5016647;28;20275;-86
2021/12/28 03:23:40;;;;;;;61.77;22.93;;;;;;;;;;5005236;28;20598;-86
2021/12/28 03:26:06;;;;;;;51.70;22.73;;;;;;;;;;5007737;28;20356;-86
2021/12/28 03:28:35;;;;;;;58.47;21.47;;;;;;;;;;5009439;28;20191;-87
2021/12/28 03:31:02;;;;;;;50.13;21.27;;;;;;;;;;5012502;28;20264;-86
2021/12/28 03:33:30;;;;;;;49.47;21.07;;;;;;;;;;5012653;28;20209;-86
2021/12/28 03:35:58;;;;;;;47.47;20.40;;;;;;;;;;5011114;28;20188;-86
2021/12/28 03:38:24;;;;;;;58.37;20.83;;;;;;;;;;5013158;28;20706;-86
2021/12/28 03:40:50;;;;;;;51.73;20.00;;;;;;;;;;5012889;28;20194;-86
2021/12/28 03:43:16;;;;;;;50.53;19.27;;;;;;;;;;5008687;28;20667;-86
2021/12/28 03:45:42;;;;;;;46.77;19.30;;;;;;;;;;5005567;28;20272;-86
2021/12/28 03:48:07;;;;;;;39.63;18.13;;;;;;;;;;5015198;28;20549;-86
2021/12/28 03:50:38;;;;;;;53.57;18.03;;;;;;;;;;5012360;28;20190;-86
2021/12/28 03:53:06;;;;;;;42.97;17.90;;;;;;;;;;5013265;28;20178;-86
2021/12/28 03:55:31;;;;;;;42.83;17.70;;;;;;;;;;5011953;28;20681;-87
2021/12/28 03:57:59;;;;;;;46.37;17.57;;;;;;;;;;5018094;28;20214;-86
2021/12/28 04:00:30;;;;;;;45.10;15.97;;;;;;;;;;5013057;28;20245;-86
2021/12/28 04:02:55;;;;;;;34.60;16.23;;;;;;;;;;5006475;28;20651;-86
2021/12/28 04:05:23;;;;;;;46.10;17.57;;;;;;;;;;5013474;28;20238;-86
2021/12/28 04:07:49;;;;;;;40.83;15.40;;;;;;;;;;5012190;28;20187;-86
2021/12/28 04:10:16;;;;;;;46.53;16.53;;;;;;;;;;5015392;28;20618;-86
2021/12/28 04:12:42;;;;;;;40.27;15.60;;;;;;;;;;5014000;28;20220;-86
2021/12/28 04:15:14;;;;;;;36.37;16.47;;;;;;;;;;5011411;28;20595;-86
2021/12/28 04:17:40;;;;;;;44.17;15.80;;;;;;;;;;5013628;28;20222;-87
2021/12/28 04:20:10;;;;;;;36.87;16.70;;;;;;;;;;5014169;28;20178;-86
2021/12/28 04:22:36;;;;;;;34.10;15.50;;;;;;;;;;5006255;28;20269;-87
2021/12/28 04:25:02;;;;;;;40.90;17.77;;;;;;;;;;5017578;28;20206;-87
2021/12/28 04:27:27;;;;;;;35.43;15.53;;;;;;;;;;5001747;28;20191;-86
2021/12/28 04:29:53;;;;;;;41.53;17.20;;;;;;;;;;5023965;28;20178;-86
2021/12/28 04:32:18;;;;;;;45.10;16.67;;;;;;;;;;5011807;28;20204;-86
2021/12/28 04:34:44;;;;;;;45.77;16.23;;;;;;;;;;5011689;28;20187;-86
2021/12/28 04:37:09;;;;;;;41.00;16.63;;;;;;;;;;5011671;28;20243;-86
2021/12/28 04:39:35;;;;;;;39.77;17.17;;;;;;;;;;5014436;28;20214;-86
2021/12/28 04:42:00;;;;;;;33.27;15.20;;;;;;;;;;5007447;28;20872;-87
2021/12/28 04:44:26;;;;;;;44.37;17.00;;;;;;;;;;5017444;28;20187;-87
2021/12/28 04:46:53;;;;;;;38.10;16.47;;;;;;;;;;5010106;28;20206;-86
2021/12/28 04:49:21;;;;;;;35.73;14.63;;;;;;;;;;5013982;28;20202;-86
2021/12/28 04:51:46;;;;;;;46.83;15.30;;;;;;;;;;5015965;28;20192;-86
2021/12/28 04:54:13;;;;;;;45.93;14.87;;;;;;;;;;5009870;28;20270;-86
2021/12/28 04:56:41;;;;;;;38.97;15.13;;;;;;;;;;5009691;28;20888;-87
2021/12/28 04:59:07;;;;;;;35.77;14.87;;;;;;;;;;5007469;28;20302;-86
2021/12/28 05:01:37;;;;;;;34.80;14.60;;;;;;;;;;5015261;28;20824;-87
2021/12/28 05:04:06;;;;;;;43.20;13.37;;;;;;;;;;5009558;28;20268;-87
2021/12/28 05:06:35;;;;;;;34.03;14.43;;;;;;;;;;5016475;28;20207;-87
2021/12/28 05:09:04;;;;;;;37.77;15.17;;;;;;;;;;5006983;28;20613;-87
2021/12/28 05:11:31;;;;;;;34.87;14.07;;;;;;;;;;5015226;28;20206;-87
2021/12/28 05:13:56;;;;;;;38.33;15.20;;;;;;;;;;5004374;28;20198;-87
2021/12/28 05:16:22;;;;;;;34.63;14.07;;;;;;;;;;5011511;28;20182;-87
2021/12/28 05:18:47;;;;;;;45.20;14.93;;;;;;;;;;5013378;28;20202;-87
2021/12/28 05:21:13;;;;;;;41.50;15.00;;;;;;;;;;5017417;28;20187;-86
2021/12/28 05:23:38;;;;;;;41.47;14.73;;;;;;;;;;5008496;28;20178;-87
2021/12/28 05:26:04;;;;;;;43.00;14.03;;;;;;;;;;5013694;28;20241;-86
2021/12/28 05:28:31;;;;;;;36.20;13.43;;;;;;;;;;5017724;28;20182;-86
2021/12/28 05:30:57;;;;;;;38.67;14.37;;;;;;;;;;5009598;28;20192;-87
2021/12/28 05:33:22;;;;;;;36.33;13.97;;;;;;;;;;5014138;28;20198;-87
2021/12/28 05:35:48;;;;;;;33.70;13.97;;;;;;;;;;5005626;28;20253;-87
2021/12/28 05:38:13;;;;;;;36.47;12.70;;;;;;;;;;5010305;28;20226;-87
2021/12/28 05:40:39;;;;;;;33.03;12.90;;;;;;;;;;5008747;28;20187;-87
2021/12/28 05:43:05;;;;;;;36.23;12.37;;;;;;;;;;5005939;28;20194;-87
2021/12/28 05:45:30;;;;;;;37.97;12.47;;;;;;;;;;5010874;28;20276;-87
2021/12/28 05:47:56;;;;;;;35.70;12.53;;;;;;;;;;5013625;28;20182;-87
2021/12/28 05:50:24;;;;;;;36.47;11.73;;;;;;;;;;5010543;28;20190;-87
2021/12/28 05:52:50;;;;;;;33.77;11.63;;;;;;;;;;5007693;28;20191;-87
2021/12/28 05:55:15;;;;;;;34.93;11.63;;;;;;;;;;5007791;28;20625;-87
2021/12/28 05:57:40;;;;;;;36.60;10.90;;;;;;;;;;5004303;28;20218;-87
2021/12/28 06:00:08;;;;;;;31.47;11.00;;;;;;;;;;5012090;28;20179;-87
2021/12/28 06:02:37;;;;;;;31.53;10.57;;;;;;;;;;5007492;28;20222;-87
2021/12/28 06:05:03;;;;;;;39.07;11.83;;;;;;;;;;5006884;28;20186;-87
2021/12/28 06:07:29;;;;;;;33.53;10.57;;;;;;;;;;5010704;28;20205;-86
2021/12/28 06:09:57;;;;;;;32.37;9.17;;;;;;;;;;5009784;28;20182;-87
2021/12/28 06:12:24;;;;;;;34.10;11.77;;;;;;;;;;5007700;28;20186;-87
2021/12/28 06:14:50;;;;;;;35.57;9.33;;;;;;;;;;5005417;28;20669;-86
2021/12/28 06:17:16;;;;;;;34.43;10.17;;;;;;;;;;5008030;28;20201;-86
2021/12/28 06:19:41;;;;;;;33.97;9.43;;;;;;;;;;5003059;28;20195;-86
2021/12/28 06:22:07;;;;;;;33.73;9.97;;;;;;;;;;5010248;28;20218;-87
2021/12/28 06:24:32;;;;;;;28.63;9.63;;;;;;;;;;5008805;28;20264;-86
2021/12/28 06:26:58;;;;;;;28.13;8.50;;;;;;;;;;5007909;28;20210;-85
2021/12/28 06:29:23;;;;;;;32.50;9.40;;;;;;;;;;5010364;28;20828;-85
2021/12/28 06:31:49;;;;;;;38.93;9.30;;;;;;;;;;5011962;28;20225;-86
2021/12/28 06:34:14;;;;;;;35.30;8.97;;;;;;;;;;5007498;28;20205;-85
2021/12/28 06:36:40;;;;;;;27.67;8.33;;;;;;;;;;5011131;28;20317;-86
2021/12/28 06:39:05;;;;;;;24.57;8.83;;;;;;;;;;5006793;28;20190;-87
2021/12/28 06:41:31;;;;;;;35.33;9.47;;;;;;;;;;5013483;28;20237;-86
2021/12/28 06:43:56;;;;;;;34.07;8.77;;;;;;;;;;5005987;28;20195;-86
2021/12/28 06:46:22;;;;;;;42.30;8.87;;;;;;;;;;5009611;28;20197;-86
2021/12/28 06:48:48;;;;;;;27.70;9.37;;;;;;;;;;4995891;28;20296;-86
2021/12/28 06:51:14;;;;;;;23.00;8.30;;;;;;;;;;5017933;28;20179;-87
2021/12/28 06:53:40;;;;;;;28.73;7.57;;;;;;;;;;5006317;28;20277;-86
2021/12/28 06:56:06;;;;;;;23.40;8.60;;;;;;;;;;5007450;28;20179;-86
2021/12/28 06:58:31;;;;;;;37.00;7.83;;;;;;;;;;5001455;28;20228;-88
2021/12/28 07:00:57;;;;;;;32.07;7.70;;;;;;;;;;5009551;28;20705;-87
2021/12/28 07:03:23;;;;;;;43.53;8.73;;;;;;;;;;5005449;28;20335;-87
2021/12/28 07:05:48;;;;;;;31.27;8.00;;;;;;;;;;5013847;28;20678;-86
2021/12/28 07:08:14;;;;;;;22.47;7.07;;;;;;;;;;5006534;28;20183;-86
2021/12/28 07:10:40;;;;;;;25.83;7.10;;;;;;;;;;5004094;28;20187;-86
2021/12/28 07:13:05;;;;;;;32.17;6.90;;;;;;;;;;5009241;28;20186;-86
2021/12/28 07:15:31;;;;;;;27.73;6.67;;;;;;;;;;5006791;28;20187;-86
2021/12/28 07:17:57;;;;;;;26.23;6.17;;;;;;;;;;5009979;28;20649;-86
2021/12/28 07:20:22;;;;;;;29.83;6.57;;;;;;;;;;5012145;28;20196;-86
2021/12/28 07:22:48;;;;;;;28.47;6.97;;;;;;;;;;5007142;28;20198;-86
2021/12/28 07:25:13;;;;;;;33.07;6.77;;;;;;;;;;4999703;28;20225;-86
2021/12/28 07:27:41;;;;;;;32.00;6.80;;;;;;;;;;5012374;28;20190;-87
2021/12/28 07:30:10;;;;;;;27.80;6.77;;;;;;;;;;5007276;28;20281;-86
2021/12/28 07:32:36;;;;;;;23.67;6.13;;;;;;;;;;5012386;28;20675;-86
2021/12/28 07:35:02;;;;;;;32.77;6.60;;;;;;;;;;5000238;28;20202;-87
2021/12/28 07:37:28;;;;;;;40.93;7.17;;;;;;;;;;5011891;28;20194;-86
2021/12/28 07:39:53;;;;;;;23.30;7.60;;;;;;;;;;5000675;28;20183;-87
2021/12/28 07:42:20;;;;;;;31.87;6.70;;;;;;;;;;5011228;28;20244;-86
2021/12/28 07:44:49;;;;;;;32.67;6.53;;;;;;;;;;5011952;28;20677;-87
2021/12/28 07:47:15;;;;;;;32.77;6.70;;;;;;;;;;5015765;28;20210;-86
2021/12/28 07:49:41;;;;;;;29.03;7.33;;;;;;;;;;5011904;28;20195;-86
2021/12/28 07:52:06;;;;;;;24.83;5.90;;;;;;;;;;5011984;28;20261;-86
2021/12/28 07:54:37;;;;;;;22.80;5.53;;;;;;;;;;5013575;28;20218;-86
2021/12/28 07:57:03;;;;;;;30.70;6.33;;;;;;;;;;5010072;28;20186;-86
2021/12/28 07:59:28;;;;;;;37.00;6.67;;;;;;;;;;5012948;28;20206;-86
2021/12/28 08:01:54;;;;;;;33.47;6.43;;;;;;;;;;5011678;28;20185;-86
2021/12/28 08:04:19;;;;;;;30.47;5.90;;;;;;;;;;5028363;28;20239;-86
2021/12/28 08:06:47;;;;;;;30.27;5.80;;;;;;;;;;5014302;28;20683;-87
2021/12/28 08:09:13;;;;;;;30.83;5.40;;;;;;;;;;5019953;28;20274;-87
2021/12/28 08:11:38;;;;;;;29.13;6.50;;;;;;;;;;5016433;28;20236;-87
2021/12/28 08:14:04;;;;;;;23.00;5.53;;;;;;;;;;5014257;28;20179;-87
2021/12/28 08:16:30;;;;;;;19.60;5.50;;;;;;;;;;5017662;28;20215;-86
2021/12/28 08:18:55;;;;;;;26.37;5.10;;;;;;;;;;4665195;28;10000142;-87
2021/12/28 08:21:21;;;;;;;21.63;5.63;;;;;;;;;;5011222;28;20808;-87
2021/12/28 08:23:46;;;;;;;24.00;5.17;;;;;;;;;;5012334;28;20194;-87
2021/12/28 08:26:12;;;;;;;26.97;5.90;;;;;;;;;;5012537;28;20206;-87
2021/12/28 08:28:41;;;;;;;23.00;5.17;;;;;;;;;;5014006;28;20273;-87
2021/12/28 08:31:06;;;;;;;21.67;4.93;;;;;;;;;;5011309;28;20186;-87
2021/12/28 08:33:34;;;;;;;26.00;5.40;;;;;;;;;;5012688;28;20193;-88
2021/12/28 08:36:00;;;;;;;23.60;5.10;;;;;;;;;;5011203;28;20262;-88
2021/12/28 08:38:25;;;;;;;24.43;4.50;;;;;;;;;;5028321;28;20291;-86
2021/12/28 08:40:52;;;;;;;23.83;5.53;;;;;;;;;;5015991;28;20185;-87
2021/12/28 08:43:21;;;;;;;19.93;4.10;;;;;;;;;;5014936;28;20179;-87
2021/12/28 08:45:49;;;;;;;27.37;5.13;;;;;;;;;;5010714;28;20213;-87
2021/12/28 08:48:17;;;;;;;21.00;4.53;;;;;;;;;;5012351;28;20178;-88
2021/12/28 08:50:43;;;;;;;24.27;4.70;;;;;;;;;;5028795;28;20205;-88
2021/12/28 08:53:11;;;;;;;19.27;4.93;;;;;;;;;;5017139;28;20186;-86
2021/12/28 08:55:40;;;;;;;22.50;5.27;;;;;;;;;;5011986;28;20184;-87
2021/12/28 08:58:08;;;;;;;24.00;4.60;;;;;;;;;;5012120;28;20472;-88
2021/12/28 09:00:35;;;;;;;22.67;4.53;;;;;;;;;;5012040;28;20209;-89
2021/12/28 09:03:01;;;;;;;21.53;5.10;;;;;;;;;;5012093;28;20709;-86
2021/12/28 09:05:31;;;;;;;13.97;4.20;;;;;;;;;;5011665;28;20193;-87
2021/12/28 09:07:57;;;;;;;22.97;4.87;;;;;;;;;;5017935;28;20229;-87
2021/12/28 09:10:25;;;;;;;17.57;4.37;;;;;;;;;;5007670;28;20282;-88
2021/12/28 09:12:51;;;;;;;19.37;5.10;;;;;;;;;;5015554;28;20178;-87
2021/12/28 09:15:17;;;;;;;21.77;5.00;;;;;;;;;;5015113;28;20347;-88
2021/12/28 09:17:45;;;;;;;19.97;4.70;;;;;;;;;;5009938;28;20269;-87
2021/12/28 09:20:16;;;;;;;17.00;4.63;;;;;;;;;;5016153;28;20186;-86
2021/12/28 09:22:43;;;;;;;22.13;4.87;;;;;;;;;;5029124;28;20209;-87
2021/12/28 09:25:09;;;;;;;14.47;5.37;;;;;;;;;;5017114;28;20189;-87
2021/12/28 09:27:38;;;;;;;15.83;4.83;;;;;;;;;;5007748;28;20186;-86
2021/12/28 09:30:05;;;;;;;22.23;4.97;;;;;;;;;;5016193;28;20558;-88
2021/12/28 09:32:33;;;;;;;13.40;5.17;;;;;;;;;;5009404;28;20198;-88
2021/12/28 09:34:59;;;;;;;12.43;4.43;;;;;;;;;;5011437;28;20206;-86
2021/12/28 09:37:25;;;;;;;16.13;4.50;;;;;;;;;;5010673;28;20217;-87
2021/12/28 09:39:50;;;;;;;13.68;3.58;;;;;;;;;;5017406;28;20186;-86
2021/12/28 09:45:14;;;;;;;15.02;4.20;;;;;;;;;;5023628;28;20205;-87
2021/12/28 09:47:41;;;;;;;15.38;4.18;;;;;;;;;;5010048;28;20251;-87
2021/12/28 09:50:14;;;;;;;11.80;4.03;;;;;;;;;;5015174;28;20178;-87
2021/12/28 09:52:41;;;;;;;13.55;4.47;;;;;;;;;;5007454;28;20189;-87
2021/12/28 09:55:09;;;;;;;19.55;5.03;;;;;;;;;;5014408;28;20185;-87
2021/12/28 09:57:35;;;;;;;14.60;4.97;;;;;;;;;;5010539;28;20210;-86
2021/12/28 10:00:00;;;;;;;12.60;4.30;;;;;;;;;;5017058;28;20220;-86
2021/12/28 10:02:26;;;;;;;13.55;4.45;;;;;;;;;;5013640;28;20238;-87
2021/12/28 10:05:05;;;;;;;15.63;4.57;;;;;;;;;;5009132;28;20197;-87
2021/12/28 10:07:35;;;;;;;18.67;4.75;;;;;;;;;;5031794;28;20198;-87
2021/12/28 10:10:00;;;;;;;12.43;4.25;;;;;;;;;;5007625;28;20206;-87
2021/12/28 10:12:35;;;;;;;13.80;4.32;;;;;;;;;;5018768;28;20556;-86
2021/12/28 10:15:04;;;;;;;9.85;4.05;;;;;;;;;;5035151;28;20189;-87
2021/12/28 10:17:32;;;;;;;12.35;4.57;;;;;;;;;;5016929;28;20178;-87
2021/12/28 10:20:00;;;;;;;10.13;5.00;;;;;;;;;;5010234;28;20280;-86
2021/12/28 10:22:28;;;;;;;13.40;4.50;;;;;;;;;;5035570;28;20193;-87
2021/12/28 10:25:12;;;;;;;11.17;4.67;;;;;;;;;;5010774;28;20201;-86
2021/12/28 10:27:40;;;;;;;14.18;4.70;;;;;;;;;;5024077;28;20910;-88
2021/12/28 10:30:08;;;;;;;12.90;4.45;;;;;;;;;;5013241;28;20190;-87
2021/12/28 10:32:34;;;;;;;12.70;4.85;;;;;;;;;;5011724;28;20599;-87
2021/12/28 10:35:07;;;;;;;13.00;5.20;;;;;;;;;;5015099;28;20182;-87
2021/12/28 10:37:39;;;;;;;13.33;5.43;;;;;;;;;;5005190;28;20709;-89
2021/12/28 10:40:11;;;;;;;14.00;4.97;;;;;;;;;;5031014;28;20617;-87
2021/12/28 10:42:56;;;;;;;15.63;5.15;;;;;;;;;;5010259;28;20213;-87
2021/12/28 10:45:27;;;;;;;15.33;6.17;;;;;;;;;;5014592;28;20186;-87
2021/12/28 10:47:55;;;;;;;11.87;5.40;;;;;;;;;;5029973;28;20190;-87
2021/12/28 10:50:30;;;;;;;15.32;5.85;;;;;;;;;;5012234;28;20186;-88
2021/12/28 10:53:07;;;;;;;12.25;6.07;;;;;;;;;;5012016;28;20672;-87
2021/12/28 10:55:34;;;;;;;10.88;5.65;;;;;;;;;;5015903;28;20178;-89
2021/12/28 10:58:00;;;;;;;10.55;6.30;;;;;;;;;;5018909;28;20282;-87
2021/12/28 11:00:29;;;;;;;10.95;5.35;;;;;;;;;;5020737;28;20182;-88
2021/12/28 11:03:14;;;;;;;11.77;6.20;;;;;;;;;;5014372;28;20225;-87
2021/12/28 11:05:40;;;;;;;9.73;5.60;;;;;;;;;;5016736;28;20562;-88
2021/12/28 11:08:09;;;;;;;14.50;6.75;;;;;;;;;;5008891;28;20185;-87
2021/12/28 11:10:39;;;;;;;11.65;6.32;;;;;;;;;;5005408;28;20190;-88
2021/12/28 11:13:07;;;;;;;10.57;6.30;;;;;;;;;;5008492;28;20197;-88
2021/12/28 11:15:37;;;;;;;12.15;6.38;;;;;;;;;;5019507;28;20189;-90
2021/12/28 11:18:20;;;;;;;11.70;6.40;;;;;;;;;;5013053;28;20700;-88
2021/12/28 11:20:47;;;;;;;9.90;6.32;;;;;;;;;;5015101;28;20194;-88
2021/12/28 11:23:15;;;;;;;9.18;6.03;;;;;;;;;;5023289;28;20189;-88
2021/12/28 11:25:41;;;;;;;9.35;6.53;;;;;;;;;;5015569;28;20620;-89
2021/12/28 11:28:16;;;;;;;11.35;7.47;;;;;;;;;;5016713;28;20277;-89
2021/12/28 11:31:01;;;;;;;12.38;8.88;;;;;;;;;;5012692;28;20237;-89
2021/12/28 11:33:41;;;;;;;21.52;12.85;;;;;;;;;;5013856;28;20214;-88
2021/12/28 11:36:07;;;;;;;12.52;9.27;;;;;;;;;;5030576;28;20189;-88
2021/12/28 11:38:36;;;;;;;11.43;7.32;;;;;;;;;;5014026;28;20190;-89
2021/12/28 11:41:04;;;;;;;9.52;7.60;;;;;;;;;;5035202;28;20186;-87
2021/12/28 11:43:30;;;;;;;13.27;8.10;;;;;;;;;;5007310;28;20178;-87
2021/12/28 11:45:55;;;;;;;9.65;7.57;;;;;;;;;;5018526;28;20869;-88
2021/12/28 11:48:21;;;;;;;12.57;8.05;;;;;;;;;;5008584;28;20190;-88
2021/12/28 11:50:46;;;;;;;11.63;7.47;;;;;;;;;;5017414;28;20548;-87
2021/12/28 11:53:14;;;;;;;12.82;9.15;;;;;;;;;;5016225;28;20174;-88
2021/12/28 11:55:41;;;;;;;11.80;7.80;;;;;;;;;;5015728;28;20178;-87
2021/12/28 11:58:07;;;;;;;12.75;8.18;;;;;;;;;;5017018;28;20569;-87
2021/12/28 12:00:37;;;;;;;10.52;7.68;;;;;;;;;;5018902;28;20186;-87
2021/12/28 12:03:03;;;;;;;9.95;7.45;;;;;;;;;;5014451;28;20708;-87
2021/12/28 12:05:32;;;;;;;13.80;7.40;;;;;;;;;;5011543;28;20253;-88
2021/12/28 12:08:11;;;;;;;12.70;7.82;;;;;;;;;;5005586;28;20228;-87
2021/12/28 12:10:42;;;;;;;8.30;6.47;;;;;;;;;;5011018;28;20253;-87
2021/12/28 12:13:22;;;;;;;8.55;6.57;;;;;;;;;;5015949;28;20194;-87
2021/12/28 12:16:01;;;;;;;12.32;6.80;;;;;;;;;;5015455;28;20232;-87
2021/12/28 12:18:31;;;;;;;9.80;6.82;;;;;;;;;;5011250;28;20620;-88
2021/12/28 12:21:06;;;;;;;9.85;6.28;;;;;;;;;;5014380;28;20195;-87
2021/12/28 12:23:44;;;;;;;8.05;6.47;;;;;;;;;;5022752;28;20218;-87
2021/12/28 12:26:12;;;;;;;9.88;6.20;;;;;;;;;;5010464;28;20717;-87
2021/12/28 12:28:46;;;;;;;8.45;6.38;;;;;;;;;;5012026;28;20182;-88
2021/12/28 12:31:27;;;;;;;9.27;7.30;;;;;;;;;;5014855;28;20186;-88
2021/12/28 12:33:52;;;;;;;7.88;6.38;;;;;;;;;;5016238;28;20694;-87
2021/12/28 12:36:38;;;;;;;9.60;6.88;;;;;;;;;;5011243;28;20218;-88
2021/12/28 12:39:05;;;;;;;12.30;7.70;;;;;;;;;;5017846;28;20186;-87
2021/12/28 12:41:40;;;;;;;12.50;9.27;;;;;;;;;;5010233;28;20182;-87
2021/12/28 12:44:12;;;;;;;11.85;8.10;;;;;;;;;;5009675;28;20289;-87
2021/12/28 12:46:43;;;;;;;10.38;7.97;;;;;;;;;;5011210;28;20217;-88
2021/12/28 12:49:20;;;;;;;8.48;6.18;;;;;;;;;;5013653;28;20183;-87
2021/12/28 12:51:45;;;;;;;9.33;6.23;;;;;;;;;;5010004;28;20711;-88
2021/12/28 12:54:19;;;;;;;9.02;6.53;;;;;;;;;;5012064;28;20190;-89
2021/12/28 12:56:59;;;;;;;9.48;5.65;;;;;;;;;;5014887;28;20186;-87
2021/12/28 12:59:29;;;;;;;9.25;5.70;;;;;;;;;;5012871;28;20778;-88
2021/12/28 13:02:07;;;;;;;6.10;5.25;;;;;;;;;;5016360;28;20241;-87
2021/12/28 13:04:32;;;;;;;11.03;5.90;;;;;;;;;;5010345;28;20288;-88
2021/12/28 13:07:11;;;;;;;6.90;5.00;;;;;;;;;;5013929;28;20662;-87
2021/12/28 13:09:40;;;;;;;6.93;4.95;;;;;;;;;;5010387;28;20191;-90
2021/12/28 13:12:11;;;;;;;7.68;5.38;;;;;;;;;;5029358;28;20207;-88
2021/12/28 13:14:37;;;;;;;8.17;5.27;;;;;;;;;;5008799;28;20187;-87
2021/12/28 13:17:05;;;;;;;8.67;5.93;;;;;;;;;;5016826;28;20190;-87
2021/12/28 13:19:31;;;;;;;11.38;5.63;;;;;;;;;;5006895;28;20188;-88
2021/12/28 13:22:15;;;;;;;22.87;9.50;;;;;;;;;;5014094;28;20237;-87
2021/12/28 13:24:44;;;;;;;6.88;5.18;;;;;;;;;;5010730;28;20190;-87
2021/12/28 13:27:11;;;;;;;18.67;7.95;;;;;;;;;;5012568;28;20242;-88
2021/12/28 13:29:39;;;;;;;8.13;5.28;;;;;;;;;;5008346;28;20205;-87
2021/12/28 13:32:34;;;;;;;18.40;7.32;;;;;;;;;;5007540;28;20195;-87
2021/12/28 13:35:01;;;;;;;9.57;5.47;;;;;;;;;;5008980;28;20191;-88
2021/12/28 13:37:48;;;;;;;6.93;5.15;;;;;;;;;;5013031;28;20194;-87
2021/12/28 13:40:14;;;;;;;29.50;9.73;;;;;;;;;;5009918;28;20195;-87
2021/12/28 13:42:48;;;;;;;30.35;11.48;;;;;;;;;;5014102;28;20568;-87
2021/12/28 13:45:55;;;;;;;10.73;5.90;;;;;;;;;;5006198;28;20193;-87
2021/12/28 13:48:27;;;;;;;5.60;3.30;;;;;;;;;;5003793;28;20198;-88
2021/12/28 13:52:02;;;;;;;4.37;2.00;;;;;;;;;;5053180;28;20602;-69
2021/12/28 13:54:28;;;;;;;7.73;2.10;;;;;;;;;;5027286;28;20194;-69
2021/12/28 13:56:53;;;;;;;4.50;1.77;;;;;;;;;;5023144;28;20545;-68
2021/12/28 13:59:19;;;;;;;5.70;0.87;;;;;;;;;;5028991;28;20186;-68
2021/12/28 14:01:45;;;;;;;7.83;1.90;;;;;;;;;;5024505;28;20178;-68
2021/12/28 14:04:13;;;;;;;9.77;1.53;;;;;;;;;;5027763;28;20209;-68
2021/12/28 14:06:41;;;;;;;9.43;1.47;;;;;;;;;;5023339;28;20200;-69
2021/12/28 14:09:10;;;;;;;9.13;1.93;;;;;;;;;;5028046;28;20192;-69
2021/12/28 14:11:39;;;;;;;8.13;1.40;;;;;;;;;;5021028;28;20300;-68
2021/12/28 14:14:22;;;;;;;9.87;1.80;;;;;;;;;;5029989;28;20430;-68
2021/12/28 14:16:58;;;;;;;12.00;1.37;;;;;;;;;;5022525;28;20201;-68
2021/12/28 14:19:25;;;;;;;11.00;2.20;;;;;;;;;;5031108;28;20196;-68
2021/12/28 14:21:52;;;;;;;12.57;2.23;;;;;;;;;;5014969;28;20189;-68
2021/12/28 14:24:17;;;;;;;14.77;2.80;;;;;;;;;;5026346;28;20256;-68
2021/12/28 14:26:49;;;;;;;17.57;2.30;;;;;;;;;;5016601;28;20214;-68
2021/12/28 14:29:26;;;;;;;13.73;2.08;;;;;;;;;;5029406;28;20935;-68
2021/12/28 14:31:54;;;;;;;11.30;1.93;;;;;;;;;;5015671;28;20765;-68
2021/12/28 14:34:45;;;;;;;17.43;1.83;;;;;;;;;;5026934;28;20348;-68
2021/12/28 14:37:14;;;;;;;12.57;2.57;;;;;;;;;;5022435;28;20607;-68
2021/12/28 14:39:52;;;;;;;25.93;4.37;;;;;;;;;;5032407;28;21181;-69